createdAt,value
2023-07-07T00:01:15.921Z,47.29
2023-07-07T00:03:44.033Z,47.56
2023-07-07T00:06:11.614Z,47.81
2023-07-07T00:08:39.300Z,46.83
2023-07-07T00:11:06.865Z,47.53
2023-07-07T00:13:35.761Z,48.07
2023-07-07T00:16:04.559Z,49.31
2023-07-07T00:18:32.338Z,49.42
2023-07-07T00:21:01.924Z,48.98
2023-07-07T00:23:31.173Z,48.65
2023-07-07T00:26:03.769Z,49.55
2023-07-07T00:28:31.836Z,48.96
2023-07-07T00:31:01.550Z,49.37
2023-07-07T00:33:30.004Z,49.03
2023-07-07T00:35:57.572Z,49.42
2023-07-07T00:38:25.203Z,50.33
2023-07-07T00:40:54.094Z,50.25
2023-07-07T00:43:23.121Z,50.63
2023-07-07T00:45:50.756Z,51.96
2023-07-07T00:48:23.026Z,52.29
2023-07-07T00:50:54.096Z,50.92
2023-07-07T00:53:22.674Z,50.30
2023-07-07T00:55:54.909Z,52.40
2023-07-07T00:58:24.917Z,52.69
2023-07-07T01:00:58.986Z,53.26
2023-07-07T01:03:33.609Z,53.33
2023-07-07T01:06:03.901Z,53.58
2023-07-07T01:08:31.676Z,52.42
2023-07-07T01:10:59.379Z,51.26
2023-07-07T01:13:28.222Z,51.36
2023-07-07T01:16:07.695Z,51.51
2023-07-07T01:18:42.440Z,51.96
2023-07-07T01:21:17.937Z,53.00
2023-07-07T01:24:20.326Z,53.56
2023-07-07T01:27:02.001Z,52.82
2023-07-07T01:29:56.458Z,53.25
2023-07-07T01:32:30.102Z,53.95
2023-07-07T01:34:59.676Z,52.11
2023-07-07T01:37:27.362Z,51.68
2023-07-07T01:39:56.339Z,50.88
2023-07-07T01:42:29.970Z,50.86
2023-07-07T01:45:05.817Z,50.77
2023-07-07T01:47:37.708Z,51.00
2023-07-07T01:50:09.744Z,51.12
2023-07-07T01:52:41.973Z,51.13
2023-07-07T01:55:16.993Z,53.38
2023-07-07T01:57:47.436Z,51.22
2023-07-07T02:00:17.598Z,51.17
2023-07-07T02:02:46.980Z,51.11
2023-07-07T02:05:15.377Z,51.13
2023-07-07T02:07:43.216Z,51.22
2023-07-07T02:10:11.939Z,51.11
2023-07-07T02:12:39.648Z,51.05
2023-07-07T02:15:08.586Z,50.71
2023-07-07T02:17:36.464Z,51.00
2023-07-07T02:20:06.622Z,51.13
2023-07-07T02:22:34.290Z,51.09
2023-07-07T02:25:01.946Z,51.11
2023-07-07T02:27:29.563Z,51.37
2023-07-07T02:29:57.239Z,51.54
2023-07-07T02:32:27.189Z,51.83
2023-07-07T02:34:56.387Z,51.95
2023-07-07T02:37:25.626Z,52.39
2023-07-07T02:39:53.475Z,52.73
2023-07-07T02:42:21.089Z,52.95
2023-07-07T02:44:48.746Z,53.16
2023-07-07T02:47:16.450Z,53.01
2023-07-07T02:49:44.104Z,52.95
2023-07-07T02:52:12.191Z,52.94
2023-07-07T02:54:41.197Z,53.08
2023-07-07T02:57:08.886Z,55.29
2023-07-07T02:59:36.462Z,55.13
2023-07-07T03:02:05.657Z,55.29
2023-07-07T03:04:33.297Z,55.73
2023-07-07T03:07:00.941Z,56.33
2023-07-07T03:09:28.578Z,55.72
2023-07-07T03:11:57.575Z,56.11
2023-07-07T03:14:25.191Z,56.69
2023-07-07T03:16:53.599Z,55.57
2023-07-07T03:19:21.691Z,57.05
2023-07-07T03:21:49.385Z,57.98
2023-07-07T03:24:17.485Z,57.53
2023-07-07T03:26:45.577Z,55.85
2023-07-07T03:29:14.709Z,56.00
2023-07-07T03:31:42.395Z,57.11
2023-07-07T03:34:10.131Z,56.89
2023-07-07T03:36:38.428Z,56.47
2023-07-07T03:39:06.349Z,55.86
2023-07-07T03:41:34.162Z,55.61
2023-07-07T03:44:02.127Z,55.83
2023-07-07T03:46:31.762Z,57.63
2023-07-07T03:49:00.318Z,58.08
2023-07-07T03:51:29.933Z,57.71
2023-07-07T03:53:57.670Z,57.60
2023-07-07T03:56:27.767Z,57.67
2023-07-07T03:58:55.461Z,56.91
2023-07-07T04:01:23.077Z,57.67
2023-07-07T04:03:52.269Z,58.40
2023-07-07T04:06:21.114Z,57.57
2023-07-07T04:08:49.005Z,58.17
2023-07-07T04:11:18.668Z,57.91
2023-07-07T04:13:49.741Z,57.31
2023-07-07T04:16:20.524Z,57.37
2023-07-07T04:18:48.758Z,56.87
2023-07-07T04:21:21.206Z,57.01
2023-07-07T04:23:50.344Z,57.58
2023-07-07T04:26:18.949Z,56.84
2023-07-07T04:28:46.635Z,56.99
2023-07-07T04:31:15.440Z,57.27
2023-07-07T04:33:43.715Z,57.22
2023-07-07T04:36:14.096Z,56.72
2023-07-07T04:38:43.999Z,57.85
2023-07-07T04:41:13.908Z,57.80
2023-07-07T04:43:44.175Z,57.86
2023-07-07T04:46:13.430Z,57.33
2023-07-07T04:48:42.019Z,56.89
2023-07-07T04:51:11.761Z,56.63
2023-07-07T04:53:42.104Z,56.54
2023-07-07T04:56:12.616Z,57.15
2023-07-07T04:58:41.620Z,56.33
2023-07-07T05:01:10.605Z,57.17
2023-07-07T05:03:42.931Z,56.93
2023-07-07T05:06:11.713Z,56.65
2023-07-07T05:08:41.420Z,56.48
2023-07-07T05:11:13.717Z,55.96
2023-07-07T05:13:41.555Z,56.49
2023-07-07T05:16:11.328Z,56.73
2023-07-07T05:18:39.366Z,55.80
2023-07-07T05:21:09.904Z,54.88
2023-07-07T05:23:38.462Z,55.11
2023-07-07T05:26:09.155Z,54.32
2023-07-07T05:28:38.410Z,53.91
2023-07-07T05:31:08.508Z,53.65
2023-07-07T05:33:36.891Z,53.49
2023-07-07T05:36:05.988Z,53.31
2023-07-07T05:38:34.014Z,53.16
2023-07-07T05:41:02.143Z,52.96
2023-07-07T05:43:30.106Z,52.68
2023-07-07T05:46:01.196Z,52.40
2023-07-07T05:48:29.622Z,52.45
2023-07-07T05:51:00.373Z,52.54
2023-07-07T05:53:29.240Z,52.37
2023-07-07T05:56:05.050Z,52.42
2023-07-07T05:58:33.209Z,52.38
2023-07-07T06:01:02.473Z,52.19
2023-07-07T06:03:30.347Z,52.36
2023-07-07T06:05:57.913Z,52.14
2023-07-07T06:08:25.531Z,52.20
2023-07-07T06:10:53.401Z,52.30
2023-07-07T06:13:25.196Z,52.31
2023-07-07T06:15:54.006Z,52.09
2023-07-07T06:18:23.818Z,52.06
2023-07-07T06:20:52.695Z,52.11
2023-07-07T06:23:20.668Z,52.10
2023-07-07T06:25:49.046Z,52.03
2023-07-07T06:28:17.005Z,51.97
2023-07-07T06:30:45.190Z,52.21
2023-07-07T06:33:12.778Z,52.41
2023-07-07T06:35:41.945Z,52.16
2023-07-07T06:38:09.594Z,52.15
2023-07-07T06:40:37.192Z,52.12
2023-07-07T06:43:04.683Z,52.11
2023-07-07T06:45:35.225Z,52.05
2023-07-07T06:48:03.952Z,52.01
2023-07-07T06:50:33.140Z,51.66
2023-07-07T06:53:02.047Z,51.62
2023-07-07T06:55:29.568Z,51.65
2023-07-07T06:57:57.128Z,51.58
2023-07-07T07:00:25.040Z,51.49
2023-07-07T07:02:52.672Z,51.46
2023-07-07T07:05:20.496Z,51.43
2023-07-07T07:07:49.058Z,51.08
2023-07-07T07:10:18.184Z,50.69
2023-07-07T07:12:45.737Z,50.47
2023-07-07T07:15:13.262Z,50.10
2023-07-07T07:17:40.886Z,50.14
2023-07-07T07:20:12.099Z,49.74
2023-07-07T07:22:39.660Z,49.83
2023-07-07T07:25:10.038Z,49.49
2023-07-07T07:27:41.558Z,49.22
2023-07-07T07:30:13.134Z,48.78
2023-07-07T07:32:40.787Z,48.17
2023-07-07T07:35:09.100Z,47.51
2023-07-07T07:37:37.413Z,47.06
2023-07-07T07:40:06.444Z,47.22
2023-07-07T07:42:34.297Z,46.69
2023-07-07T07:45:03.857Z,45.78
2023-07-07T07:47:35.848Z,45.42
2023-07-07T07:50:06.057Z,46.15
2023-07-07T07:52:41.635Z,44.95
2023-07-07T07:55:21.602Z,44.79
2023-07-07T07:57:57.066Z,44.65
2023-07-07T08:00:32.922Z,43.92
2023-07-07T08:03:09.949Z,43.32
2023-07-07T08:05:37.879Z,43.19
2023-07-07T08:08:07.363Z,42.63
2023-07-07T08:10:36.362Z,41.32
2023-07-07T08:13:06.273Z,41.52
2023-07-07T08:15:38.044Z,41.27
2023-07-07T08:40:22.820Z,39.42
2023-07-07T08:43:25.237Z,38.24
2023-07-07T08:46:00.874Z,38.22
2023-07-07T08:48:42.556Z,38.00
2023-07-07T08:51:18.979Z,38.09
2023-07-07T08:56:35.913Z,37.33
2023-07-07T08:59:16.408Z,37.38
2023-07-07T09:01:55.817Z,36.34
2023-07-07T09:04:33.350Z,36.57
2023-07-07T09:07:20.294Z,35.89
2023-07-07T09:10:04.133Z,36.51
2023-07-07T09:12:39.390Z,36.79
2023-07-07T09:15:15.024Z,35.47
2023-07-07T09:17:46.961Z,35.54
2023-07-07T09:20:18.094Z,35.10
2023-07-07T09:22:49.543Z,35.30
2023-07-07T09:25:21.253Z,35.12
2023-07-07T09:27:59.525Z,35.01
2023-07-07T09:30:32.291Z,33.78
2023-07-07T09:33:00.183Z,34.61
2023-07-07T09:35:32.838Z,34.00
2023-07-07T09:38:12.306Z,33.37
2023-07-07T09:40:46.024Z,34.29
2023-07-07T09:43:26.097Z,33.85
2023-07-07T09:46:09.038Z,32.69
2023-07-07T09:48:45.020Z,33.19
2023-07-07T09:51:24.130Z,34.16
2023-07-07T09:53:52.504Z,32.74
2023-07-07T09:56:24.067Z,33.24
2023-07-07T09:59:04.381Z,32.25
2023-07-07T10:01:37.652Z,32.97
2023-07-07T10:04:14.794Z,31.56
2023-07-07T10:06:49.455Z,33.20
2023-07-07T10:09:17.415Z,33.15
2023-07-07T10:14:19.510Z,30.80
2023-07-07T10:16:56.444Z,31.03
2023-07-07T10:19:25.166Z,30.24
2023-07-07T10:21:53.387Z,30.31
2023-07-07T10:24:21.875Z,30.55
2023-07-07T10:26:49.590Z,30.68
2023-07-07T10:29:22.331Z,29.91
2023-07-07T10:31:52.138Z,30.21
2023-07-07T10:34:27.425Z,29.83
2023-07-07T10:36:56.819Z,30.06
2023-07-07T10:39:25.348Z,29.76
2023-07-07T10:41:52.893Z,29.50
2023-07-07T10:44:25.207Z,28.68
2023-07-07T10:46:52.826Z,28.77
2023-07-07T10:49:25.434Z,29.08
2023-07-07T10:52:11.431Z,28.89
2023-07-07T10:54:47.803Z,28.78
2023-07-07T10:57:26.161Z,29.21
2023-07-07T11:00:04.266Z,28.52
2023-07-07T11:02:59.725Z,28.36
2023-07-07T11:05:36.958Z,27.77
2023-07-07T11:08:21.430Z,28.69
2023-07-07T11:11:07.656Z,28.34
2023-07-07T11:13:51.096Z,28.26
2023-07-07T11:16:32.972Z,28.48
2023-07-07T11:19:18.060Z,29.46
2023-07-07T11:21:57.945Z,28.76
2023-07-07T11:24:54.982Z,28.27
2023-07-07T11:27:27.004Z,29.18
2023-07-07T11:30:01.861Z,28.22
2023-07-07T11:32:39.794Z,28.08
2023-07-07T11:35:18.874Z,27.73
2023-07-07T11:38:00.986Z,28.07
2023-07-07T11:40:37.640Z,28.34
2023-07-07T11:43:21.674Z,28.25
2023-07-07T11:46:08.416Z,27.38
2023-07-07T11:48:42.026Z,26.89
2023-07-07T11:51:24.856Z,26.15
2023-07-07T11:54:08.806Z,26.72
2023-07-07T11:56:53.656Z,27.00
2023-07-07T11:59:39.154Z,27.48
2023-07-07T12:02:15.749Z,26.79
2023-07-07T12:04:46.568Z,26.66
2023-07-07T12:07:21.507Z,26.11
2023-07-07T12:09:54.601Z,26.04
2023-07-07T12:12:29.047Z,25.47
2023-07-07T12:15:04.015Z,25.28
2023-07-07T12:17:37.790Z,25.27
2023-07-07T12:20:15.680Z,25.95
2023-07-07T12:22:43.283Z,25.52
2023-07-07T12:25:22.708Z,26.12
2023-07-07T12:27:52.684Z,25.87
2023-07-07T12:30:26.265Z,25.55
2023-07-07T12:32:54.391Z,25.38
2023-07-07T12:35:29.730Z,24.91
2023-07-07T12:37:58.513Z,25.04
2023-07-07T12:40:26.785Z,25.39
2023-07-07T12:43:01.060Z,25.61
2023-07-07T12:45:32.650Z,25.22
2023-07-07T12:48:05.806Z,25.33
2023-07-07T12:50:37.806Z,24.62
2023-07-07T12:53:07.000Z,26.10
2023-07-07T12:55:39.087Z,24.63
2023-07-07T12:58:32.977Z,25.24
2023-07-07T13:01:12.100Z,24.71
2023-07-07T13:03:47.482Z,25.72
2023-07-07T13:06:34.528Z,28.23
2023-07-07T13:09:22.003Z,25.44
2023-07-07T13:11:52.232Z,25.03
2023-07-07T13:14:32.624Z,24.49
2023-07-07T13:17:02.643Z,24.67
2023-07-07T13:19:30.868Z,23.81
2023-07-07T13:22:03.678Z,24.27
2023-07-07T13:24:41.204Z,24.51
2023-07-07T13:27:14.773Z,24.53
2023-07-07T13:29:43.197Z,24.25
2023-07-07T13:32:27.326Z,24.02
2023-07-07T13:34:55.842Z,23.91
2023-07-07T13:37:26.548Z,23.66
2023-07-07T13:39:54.206Z,24.10
2023-07-07T13:42:25.385Z,23.68
2023-07-07T13:45:00.420Z,24.12
2023-07-07T13:47:32.282Z,24.30
2023-07-07T13:50:02.647Z,24.01
2023-07-07T13:52:34.379Z,23.54
2023-07-07T13:55:01.915Z,24.24
2023-07-07T13:57:32.321Z,23.51
2023-07-07T14:00:01.904Z,23.43
2023-07-07T14:02:30.319Z,23.11
2023-07-07T14:05:02.339Z,23.42
2023-07-07T14:07:29.973Z,23.63
2023-07-07T14:09:59.357Z,23.61
2023-07-07T14:12:30.036Z,23.86
2023-07-07T14:15:00.242Z,23.72
2023-07-07T14:17:34.681Z,23.78
2023-07-07T14:20:09.235Z,23.20
2023-07-07T14:22:37.617Z,23.52
2023-07-07T14:25:08.414Z,23.29
2023-07-07T14:27:36.170Z,23.14
2023-07-07T14:30:03.983Z,23.72
2023-07-07T14:32:37.584Z,24.15
2023-07-07T14:35:15.765Z,23.63
2023-07-07T14:37:50.149Z,23.71
2023-07-07T14:40:28.729Z,24.01
2023-07-07T14:42:57.023Z,23.76
2023-07-07T14:45:27.104Z,23.38
2023-07-07T14:47:55.321Z,23.75
2023-07-07T14:50:23.564Z,23.64
2023-07-07T14:52:54.546Z,24.15
2023-07-07T14:55:26.092Z,24.26
2023-07-07T14:57:58.137Z,24.04
2023-07-07T15:00:37.836Z,24.24
2023-07-07T15:03:29.681Z,24.16
2023-07-07T15:06:02.011Z,24.11
2023-07-07T15:08:31.126Z,24.17
2023-07-07T15:11:02.581Z,24.66
2023-07-07T15:13:30.973Z,24.31
2023-07-07T15:15:58.979Z,24.34
2023-07-07T15:18:26.792Z,23.87
2023-07-07T15:20:54.332Z,24.44
2023-07-07T15:23:21.863Z,24.42
2023-07-07T15:25:49.819Z,24.36
2023-07-07T15:28:22.061Z,24.28
2023-07-07T15:30:49.644Z,23.99
2023-07-07T15:33:18.256Z,24.04
2023-07-07T15:35:46.034Z,23.98
2023-07-07T15:38:47.351Z,24.05
2023-07-07T15:41:16.757Z,23.63
2023-07-07T15:43:45.933Z,23.74
2023-07-07T15:46:15.708Z,23.59
2023-07-07T15:48:43.275Z,23.47
2023-07-07T15:51:31.860Z,23.69
2023-07-07T15:54:00.157Z,24.15
2023-07-07T15:56:30.382Z,23.54
2023-07-07T15:58:59.728Z,23.93
2023-07-07T16:01:27.833Z,23.86
2023-07-07T16:03:55.665Z,23.50
2023-07-07T16:06:23.851Z,23.07
2023-07-07T16:08:51.398Z,23.66
2023-07-07T16:11:21.108Z,23.04
2023-07-07T16:13:51.162Z,23.39
2023-07-07T16:16:23.520Z,23.65
2023-07-07T16:18:51.709Z,23.64
2023-07-07T16:21:22.162Z,23.85
2023-07-07T16:23:49.986Z,23.28
2023-07-07T16:26:25.460Z,23.48
2023-07-07T16:28:53.197Z,23.51
2023-07-07T16:31:23.342Z,23.76
2023-07-07T16:33:50.993Z,23.97
2023-07-07T16:36:20.779Z,23.93
2023-07-07T16:38:49.508Z,23.18
2023-07-07T16:41:20.085Z,23.34
2023-07-07T16:43:47.669Z,23.16
2023-07-07T16:46:17.287Z,23.69
2023-07-07T16:48:49.922Z,23.56
2023-07-07T16:51:20.861Z,23.37
2023-07-07T16:53:48.806Z,23.54
2023-07-07T16:56:20.931Z,23.43
2023-07-07T16:58:48.511Z,23.69
2023-07-07T17:01:17.335Z,23.52
2023-07-07T17:03:46.561Z,23.04
2023-07-07T17:06:24.659Z,23.65
2023-07-07T17:08:52.877Z,23.71
2023-07-07T17:11:20.623Z,23.40
2023-07-07T17:13:48.425Z,24.02
2023-07-07T17:16:21.536Z,23.78
2023-07-07T17:18:52.265Z,23.32
2023-07-07T17:21:21.205Z,23.41
2023-07-07T17:23:49.687Z,23.45
2023-07-07T17:26:18.471Z,23.61
2023-07-07T17:28:46.249Z,23.71
2023-07-07T17:31:15.814Z,23.39
2023-07-07T17:33:43.720Z,23.86
2023-07-07T17:36:19.256Z,23.81
2023-07-07T17:38:46.852Z,24.06
2023-07-07T17:41:15.431Z,23.76
2023-07-07T17:43:43.340Z,24.18
2023-07-07T17:46:23.863Z,23.90
2023-07-07T17:48:51.736Z,23.81
2023-07-07T17:51:20.617Z,23.74
2023-07-07T17:53:48.349Z,24.48
2023-07-07T17:56:18.310Z,24.51
2023-07-07T17:58:46.247Z,23.76
2023-07-07T18:01:14.008Z,23.70
2023-07-07T18:03:41.800Z,24.05
2023-07-07T18:06:18.123Z,24.24
2023-07-07T18:08:47.864Z,24.18
2023-07-07T18:11:18.583Z,24.32
2023-07-07T18:13:46.771Z,24.50
2023-07-07T18:16:18.493Z,24.69
2023-07-07T18:19:07.176Z,24.85
2023-07-07T18:21:49.166Z,24.53
2023-07-07T18:24:23.110Z,24.85
2023-07-07T18:26:50.697Z,25.25
2023-07-07T18:29:21.536Z,25.09
2023-07-07T18:31:49.167Z,25.57
2023-07-07T18:34:17.101Z,25.79
2023-07-07T18:36:47.717Z,25.73
2023-07-07T18:39:21.253Z,26.47
2023-07-07T18:41:50.301Z,26.96
2023-07-07T18:44:18.668Z,26.77
2023-07-07T18:46:46.256Z,27.35
2023-07-07T18:49:14.766Z,27.30
2023-07-07T18:51:43.624Z,27.74
2023-07-07T18:54:11.775Z,28.00
2023-07-07T18:56:40.160Z,28.26
2023-07-07T18:59:13.008Z,28.61
2023-07-07T19:01:41.044Z,28.51
2023-07-07T19:04:08.967Z,28.66
2023-07-07T19:06:39.218Z,28.86
2023-07-07T19:09:16.171Z,28.82
2023-07-07T19:11:43.820Z,29.00
2023-07-07T19:14:12.807Z,28.99
2023-07-07T19:16:40.818Z,29.09
2023-07-07T19:19:13.719Z,29.00
2023-07-07T19:21:41.280Z,28.83
2023-07-07T19:24:11.626Z,28.91
2023-07-07T19:26:44.583Z,29.03
2023-07-07T19:29:15.013Z,28.95
2023-07-07T19:31:43.441Z,28.36
2023-07-07T19:34:12.558Z,28.47
2023-07-07T19:36:41.737Z,28.23
2023-07-07T19:39:15.989Z,28.27
2023-07-07T19:41:43.617Z,28.21
2023-07-07T19:44:11.918Z,28.61
2023-07-07T19:46:42.562Z,28.60
2023-07-07T19:49:17.570Z,28.59
2023-07-07T19:51:45.499Z,29.00
2023-07-07T19:54:13.166Z,28.71
2023-07-07T19:56:41.437Z,28.75
2023-07-07T19:59:13.817Z,28.68
2023-07-07T20:01:42.972Z,28.47
2023-07-07T20:04:10.530Z,28.59
2023-07-07T20:06:41.641Z,28.80
2023-07-07T20:09:15.876Z,28.74
2023-07-07T20:11:43.387Z,28.91
2023-07-07T20:14:10.949Z,29.05
2023-07-07T20:16:44.978Z,29.20
2023-07-07T20:19:14.368Z,30.03
2023-07-07T20:21:42.229Z,29.99
2023-07-07T20:24:15.741Z,30.37
2023-07-07T20:26:46.855Z,30.32
2023-07-07T20:29:15.779Z,30.22
2023-07-07T20:31:45.056Z,30.46
2023-07-07T20:34:13.672Z,30.61
2023-07-07T20:36:43.446Z,30.96
2023-07-07T20:39:14.045Z,31.29
2023-07-07T20:41:41.937Z,31.10
2023-07-07T20:44:09.531Z,31.24
2023-07-07T20:46:39.557Z,31.61
2023-07-07T20:49:15.177Z,31.32
2023-07-07T20:51:42.827Z,31.50
2023-07-07T20:54:10.390Z,32.00
2023-07-07T20:56:37.952Z,31.95
2023-07-07T20:59:17.750Z,32.10
2023-07-07T21:01:53.337Z,31.79
2023-07-07T21:04:22.325Z,32.16
2023-07-07T21:06:49.862Z,32.34
2023-07-07T21:09:18.024Z,32.50
2023-07-07T21:11:46.112Z,32.19
2023-07-07T21:14:13.940Z,32.10
2023-07-07T21:16:45.672Z,31.87
2023-07-07T21:19:13.657Z,31.99
2023-07-07T21:21:43.247Z,32.42
2023-07-07T21:24:10.823Z,32.02
2023-07-07T21:26:38.634Z,32.08
2023-07-07T21:29:11.121Z,32.28
2023-07-07T21:31:40.201Z,32.55
2023-07-07T21:34:08.245Z,32.70
2023-07-07T21:36:38.254Z,32.89
2023-07-07T21:39:20.362Z,32.51
2023-07-07T21:41:53.563Z,32.58
2023-07-07T21:44:34.156Z,32.83
2023-07-07T21:47:01.959Z,33.19
2023-07-07T21:49:29.501Z,33.61
2023-07-07T21:51:57.092Z,33.84
2023-07-07T21:54:26.180Z,33.79
2023-07-07T21:56:53.741Z,33.61
2023-07-07T21:59:23.107Z,33.50
2023-07-07T22:01:52.694Z,33.99
2023-07-07T22:04:22.758Z,33.88
2023-07-07T22:06:50.561Z,34.06
2023-07-07T22:09:19.369Z,33.65
2023-07-07T22:11:48.296Z,34.20
2023-07-07T22:14:15.834Z,33.79
2023-07-07T22:16:43.352Z,34.22
2023-07-07T22:19:13.430Z,34.43
2023-07-07T22:21:41.097Z,34.16
2023-07-07T22:24:08.842Z,34.13
2023-07-07T22:26:36.839Z,34.01
2023-07-07T22:29:05.874Z,34.35
2023-07-07T22:31:33.397Z,34.54
2023-07-07T22:34:01.042Z,34.40
2023-07-07T22:36:28.662Z,34.51
2023-07-07T22:38:56.366Z,34.67
2023-07-07T22:41:26.044Z,34.89
2023-07-07T22:43:53.989Z,34.57
2023-07-07T22:46:26.389Z,34.66
2023-07-07T22:48:54.027Z,34.59
2023-07-07T22:51:22.243Z,34.67
2023-07-07T22:53:50.000Z,34.59
2023-07-07T22:56:24.680Z,34.90
2023-07-07T22:58:52.797Z,34.79
2023-07-07T23:01:20.749Z,35.13
2023-07-07T23:03:52.586Z,35.22
2023-07-07T23:06:20.307Z,35.27
2023-07-07T23:08:48.331Z,35.14
2023-07-07T23:11:17.455Z,35.43
2023-07-07T23:13:45.138Z,35.51
2023-07-07T23:16:13.822Z,35.50
2023-07-07T23:18:42.450Z,35.50
2023-07-07T23:21:13.108Z,35.78
2023-07-07T23:26:15.640Z,35.69
2023-07-07T23:28:43.155Z,36.01
2023-07-07T23:31:11.556Z,35.79
2023-07-07T23:33:39.148Z,35.50
2023-07-07T23:36:16.740Z,35.91
2023-07-07T23:38:45.405Z,35.49
2023-07-07T23:41:13.987Z,35.87
2023-07-07T23:51:11.071Z,35.59
2023-07-07T23:53:40.251Z,35.61
2023-07-07T23:56:13.559Z,35.93
2023-07-07T23:58:41.150Z,35.58
